Here is the Quick Look data you requested

The Data originates at the National Weather Service, and is made available here by the UAlbany Department of Atmospheric and Environmental Sciences

Surface Observations

KHGR 240453Z AUTO 00000KT 10SM OVC070 21/17 A2991 RMK AO2 SLP133 T02060172
 402890206=
KHGR 240553Z AUTO 00000KT 10SM CLR 20/17 A2990 RMK AO2 SLP127 T02000167 10261
 20200 58008=
KHGR 240653Z AUTO 09003KT 10SM CLR 19/17 A2988 RMK AO2 SLP124 T01940167=
KHGR 240753Z AUTO 00000KT 10SM CLR 19/17 A2989 RMK AO2 SLP124 T01940167=
KHGR 240853Z AUTO 06003KT 10SM CLR 19/17 A2989 RMK AO2 SLP126 T01890167 55001=
KHGR 240953Z AUTO 06003KT 10SM CLR 19/17 A2989 RMK AO2 SLP127 T01890167=
KHGR 241053Z 00000KT 9SM FEW110 19/17 A2992 RMK AO2 SLP135 T01890167=
KHGR 241153Z 00000KT 9SM FEW049 FEW060 21/18 A2993 RMK AO2 SLP138 T02060178
 10206 20178 53012=
KHGR 241253Z 00000KT 8SM BKN055 22/18 A2992 RMK AO2 SLP137 T02220183=
KHGR 241353Z 31003KT 10SM FEW055 23/18 A2992 RMK AO2 SLP134 T02330183=
KHGR 241453Z 00000KT 10SM CLR 26/14 A2991 RMK AO2 SLP134 T02560144 56004=
KHGR 241553Z 17003KT 10SM SCT060 26/13 A2991 RMK AO2 SLP132 T02610133=
KHGR 241653Z VRB04KT 10SM SCT060 27/14 A2989 RMK AO2 SLP126 T02720139=
KHGR 241753Z 00000KT 10SM FEW060 27/13 A2987 RMK AO2 SLP119 T02720133 10283
 20206 58014=
KHGR 241853Z 24004KT 10SM OVC060 28/14 A2987 RMK AO2 SLP118 T02780144=
KHGR 241953Z VRB04KT 10SM BKN060 28/14 A2985 RMK AO2 SLP112 T02830139=
KHGR 242053Z 29004KT 10SM CLR 28/15 A2985 RMK AO2 SLP112 T02830150 57007=
KHGR 242153Z 00000KT 10SM CLR 28/15 A2984 RMK AO2 SLP110 T02830150=
KHGR 242253Z 00000KT 10SM CLR 28/14 A2983 RMK AO2 SLP106 T02780144=
KHGR 242353Z 26003KT 10SM CLR 27/15 A2984 RMK AO2 SLP107 T02720150 10294 20272
 55004=
KHGR 250053Z 22003KT 10SM CLR 26/16 A2984 RMK AO2 SLP109 T02610156=
KHGR 250153Z 22004KT 10SM FEW070 25/16 A2987 RMK AO2 SLP119 T02500161=
KHGR 250253Z AUTO 21003KT 10SM CLR 24/17 A2988 RMK AO2 SLP122 T02390167 53016=
KHGR 250353Z AUTO 00000KT 10SM CLR 22/17 A2988 RMK AO2 SLP122 T02220167=
KHGR 250453Z AUTO 00000KT 10SM CLR 22/16 A2989 RMK AO2 SLP124 T02170161
 402940178=
KHGR 250553Z AUTO 12004KT 10SM CLR 19/16 A2987 RMK AO2 SLP119 T01940161 10272
 20194 58004=
KHGR 250653Z AUTO 00000KT 10SM CLR 20/16 A2985 RMK AO2 SLP114 T02000156=
KHGR 250753Z AUTO 14003KT 10SM CLR 19/16 A2985 RMK AO2 SLP112 T01940156=
KHGR 250853Z AUTO 15004KT 10SM CLR 18/16 A2986 RMK AO2 SLP116 T01830156 55002=
KHGR 250953Z AUTO 10005KT 8SM CLR 18/16 A2986 RMK AO2 SLP115 T01780161=
KHGR 251053Z 00000KT 8SM CLR 19/17 A2988 RMK AO2 SLP122 T01890167=